createdAt,value
2019-02-20T00:03:31.111Z,9.70
2019-02-20T00:08:38.231Z,10.13
2019-02-20T00:13:45.388Z,9.97
2019-02-20T00:18:52.529Z,9.76
2019-02-20T00:23:59.676Z,8.67
2019-02-20T00:29:06.835Z,8.57
2019-02-20T00:34:14.005Z,10.44
2019-02-20T00:39:21.161Z,10.51
2019-02-20T00:44:28.303Z,10.89
2019-02-20T00:49:35.414Z,10.36
2019-02-20T00:54:42.568Z,10.35
2019-02-20T00:59:49.685Z,9.58
2019-02-20T01:04:56.830Z,11.70
2019-02-20T01:10:03.983Z,10.42
2019-02-20T01:15:11.099Z,11.20
2019-02-20T01:20:18.258Z,11.18
2019-02-20T01:25:25.391Z,11.71
2019-02-20T01:30:32.680Z,10.92
2019-02-20T01:35:39.827Z,9.88
2019-02-20T01:40:46.987Z,10.52
2019-02-20T01:45:54.143Z,11.30
2019-02-20T01:51:01.327Z,12.87
2019-02-20T01:56:08.458Z,9.48
2019-02-20T02:01:15.759Z,9.98
2019-02-20T02:06:22.882Z,9.43
2019-02-20T02:11:29.982Z,11.00
2019-02-20T02:16:37.138Z,10.45
2019-02-20T02:21:44.271Z,10.10
2019-02-20T02:26:51.440Z,10.50
2019-02-20T02:31:58.560Z,11.99
2019-02-20T02:37:05.709Z,9.55
2019-02-20T02:42:12.871Z,10.66
2019-02-20T02:47:20.044Z,10.73
2019-02-20T02:52:27.348Z,9.43
2019-02-20T02:57:34.630Z,9.33
2019-02-20T03:02:41.783Z,9.58
2019-02-20T03:07:48.952Z,10.00
2019-02-20T03:12:56.054Z,9.96
2019-02-20T03:18:03.199Z,9.93
2019-02-20T03:23:10.333Z,8.30
2019-02-20T03:28:17.510Z,9.03
2019-02-20T03:33:24.626Z,8.71
2019-02-20T03:38:31.767Z,8.16
2019-02-20T03:43:38.930Z,9.15
2019-02-20T03:48:46.084Z,8.63
2019-02-20T03:53:53.383Z,8.97
2019-02-20T03:59:00.512Z,10.90
2019-02-20T04:04:07.660Z,8.45
2019-02-20T04:09:14.920Z,8.75
2019-02-20T04:14:22.037Z,8.86
2019-02-20T04:19:29.166Z,8.68
2019-02-20T04:24:36.258Z,9.42
2019-02-20T04:29:43.421Z,9.09
2019-02-20T04:34:50.544Z,8.88
2019-02-20T04:39:57.639Z,9.16
2019-02-20T04:45:04.783Z,8.35
2019-02-20T04:50:12.124Z,8.92
2019-02-20T04:55:19.261Z,8.04
2019-02-20T05:00:26.371Z,9.81
2019-02-20T05:05:33.453Z,8.51
2019-02-20T05:10:40.583Z,8.60
2019-02-20T05:15:47.626Z,8.56
2019-02-20T05:20:54.666Z,9.68
2019-02-20T05:26:01.721Z,9.73
2019-02-20T05:31:08.822Z,9.71
2019-02-20T05:36:15.896Z,7.90
2019-02-20T05:41:22.935Z,9.12
2019-02-20T05:46:30.304Z,8.69
2019-02-20T05:51:37.369Z,7.88
2019-02-20T05:56:44.413Z,8.89
2019-02-20T06:01:51.503Z,8.55
2019-02-20T06:06:58.544Z,9.52
2019-02-20T06:12:05.577Z,10.67
2019-02-20T06:17:12.627Z,8.27
2019-02-20T06:22:19.721Z,9.48
2019-02-20T06:27:26.786Z,10.63
2019-02-20T06:32:33.893Z,9.00
2019-02-20T06:37:40.964Z,9.92
2019-02-20T06:42:48.049Z,10.50
2019-02-20T06:47:55.121Z,9.90
2019-02-20T06:53:02.201Z,9.68
2019-02-20T06:58:09.300Z,9.15
2019-02-20T07:03:16.350Z,10.20
2019-02-20T07:08:23.452Z,9.02
2019-02-20T07:13:30.518Z,10.36
2019-02-20T07:18:37.556Z,11.24
2019-02-20T07:23:44.588Z,10.32
2019-02-20T07:28:51.636Z,8.19
2019-02-20T07:33:58.721Z,9.00
2019-02-20T07:39:05.953Z,10.37
2019-02-20T07:44:13.001Z,11.54
2019-02-20T07:49:20.056Z,19.44
2019-02-20T07:54:27.141Z,14.57
2019-02-20T07:59:34.216Z,15.42
2019-02-20T08:04:41.262Z,12.77
2019-02-20T08:09:48.320Z,10.05
2019-02-20T08:14:55.383Z,12.21
2019-02-20T08:20:02.530Z,11.40
2019-02-20T08:25:09.567Z,12.29
2019-02-20T08:30:16.644Z,12.53
2019-02-20T08:35:23.712Z,12.46
2019-02-20T08:40:30.949Z,13.41
2019-02-20T08:45:37.978Z,11.19
2019-02-20T08:50:45.040Z,10.98
2019-02-20T08:55:52.149Z,11.62
2019-02-20T09:00:59.197Z,11.70
2019-02-20T09:06:06.230Z,12.79
2019-02-20T09:11:13.326Z,14.97
2019-02-20T09:16:20.384Z,14.08
2019-02-20T09:21:32.384Z,16.08
2019-02-20T09:26:29.403Z,16.99
2019-02-20T09:31:36.429Z,16.43
2019-02-20T09:36:43.477Z,18.30
2019-02-20T09:41:50.552Z,18.33
2019-02-20T09:46:57.605Z,17.63
2019-02-20T09:52:04.678Z,19.62
2019-02-20T09:57:11.730Z,19.35
2019-02-20T10:02:18.761Z,19.76
2019-02-20T10:07:25.823Z,20.43
2019-02-20T10:12:32.977Z,18.67
2019-02-20T10:17:40.030Z,18.75
2019-02-20T10:22:47.079Z,20.69
2019-02-20T10:27:54.129Z,21.65
2019-02-20T10:33:01.212Z,20.44
2019-02-20T10:38:08.462Z,22.26
2019-02-20T10:43:15.537Z,23.28
2019-02-20T10:48:22.831Z,22.47
2019-02-20T10:53:30.151Z,22.67
2019-02-20T10:58:37.260Z,24.28
2019-02-20T11:03:44.329Z,24.54
2019-02-20T11:08:51.489Z,21.41
2019-02-20T11:13:58.525Z,21.22
2019-02-20T11:19:05.570Z,18.52
2019-02-20T11:24:12.611Z,17.97
2019-02-20T11:29:19.892Z,18.95
2019-02-20T11:34:26.973Z,16.25
2019-02-20T11:39:37.727Z,14.87
2019-02-20T11:44:40.660Z,17.51
2019-02-20T11:49:47.746Z,17.32
2019-02-20T11:54:54.822Z,15.10
2019-02-20T12:00:01.901Z,16.97
2019-02-20T12:05:08.994Z,15.97
2019-02-20T12:10:16.158Z,15.17
2019-02-20T12:15:23.178Z,14.76
2019-02-20T12:20:30.431Z,14.91
2019-02-20T12:25:37.722Z,13.89
2019-02-20T12:30:44.902Z,14.66
2019-02-20T12:35:52.238Z,14.22
2019-02-20T12:40:59.449Z,14.47
2019-02-20T12:46:06.816Z,13.61
2019-02-20T12:51:14.215Z,12.52
2019-02-20T12:56:21.400Z,14.27
2019-02-20T13:01:28.583Z,12.64
2019-02-20T13:06:35.973Z,12.95
2019-02-20T13:11:43.083Z,12.73
2019-02-20T13:16:50.522Z,11.37
2019-02-20T13:21:57.614Z,10.52
2019-02-20T13:27:08.655Z,9.49
2019-02-20T13:32:11.275Z,8.28
2019-02-20T13:37:18.345Z,8.36
2019-02-20T13:42:25.401Z,6.85
2019-02-20T13:47:32.475Z,6.77
2019-02-20T13:52:39.536Z,6.94
2019-02-20T13:57:46.578Z,7.43
2019-02-20T14:02:53.662Z,7.71
2019-02-20T14:08:00.859Z,8.77
2019-02-20T14:13:07.945Z,9.56
2019-02-20T14:18:15.003Z,8.87
2019-02-20T14:23:22.076Z,8.19
2019-02-20T14:28:29.873Z,7.92
2019-02-20T14:33:36.937Z,7.36
2019-02-20T14:38:45.160Z,6.83
2019-02-20T14:43:52.497Z,6.72
2019-02-20T14:49:00.273Z,7.86
2019-02-20T14:54:08.019Z,7.23
2019-02-20T14:59:15.498Z,7.24
2019-02-20T15:04:23.282Z,6.91
2019-02-20T15:09:31.348Z,6.43
2019-02-20T15:14:39.526Z,6.74
2019-02-20T15:19:47.286Z,6.29
2019-02-20T15:24:55.611Z,5.80
2019-02-20T15:30:04.347Z,6.09
2019-02-20T15:35:10.265Z,6.38
2019-02-20T15:40:18.010Z,5.45
2019-02-20T15:45:25.659Z,5.17
2019-02-20T15:50:33.551Z,6.12
2019-02-20T15:55:41.834Z,6.22
2019-02-20T16:00:49.894Z,5.73
2019-02-20T16:05:57.626Z,7.14
2019-02-20T16:11:05.458Z,5.88
2019-02-20T16:16:14.247Z,6.47
2019-02-20T16:21:19.955Z,6.53
2019-02-20T16:26:27.751Z,8.62
2019-02-20T16:31:35.525Z,8.91
2019-02-20T16:36:42.358Z,8.39
2019-02-20T16:41:49.973Z,9.66
2019-02-20T16:46:57.262Z,7.71
2019-02-20T16:52:04.315Z,7.41
2019-02-20T16:57:11.365Z,6.78
2019-02-20T17:02:18.421Z,6.99
2019-02-20T17:07:25.491Z,6.87
2019-02-20T17:12:32.558Z,6.86
2019-02-20T17:17:39.647Z,7.17
2019-02-20T17:22:46.701Z,7.59
2019-02-20T17:27:53.762Z,7.69
2019-02-20T17:33:00.845Z,8.89
2019-02-20T17:38:07.911Z,7.51
2019-02-20T17:43:15.243Z,8.75
2019-02-20T17:48:22.312Z,10.73
2019-02-20T17:53:29.364Z,11.20
2019-02-20T17:58:36.453Z,11.92
2019-02-20T18:03:43.531Z,20.69
2019-02-20T18:08:50.630Z,32.17
2019-02-20T18:13:57.764Z,10.86
2019-02-20T18:19:04.854Z,19.60
2019-02-20T18:24:11.948Z,40.82
2019-02-20T18:29:18.990Z,29.56
2019-02-20T18:34:26.133Z,26.49
2019-02-20T18:39:33.611Z,25.88
2019-02-20T18:44:43.079Z,32.41
2019-02-20T18:49:50.297Z,45.13
2019-02-20T18:55:05.498Z,27.42
2019-02-20T19:00:04.160Z,22.46
2019-02-20T19:05:11.260Z,18.69
2019-02-20T19:10:19.645Z,16.47
2019-02-20T19:15:27.185Z,23.57
2019-02-20T19:20:35.535Z,19.72
2019-02-20T19:25:43.418Z,18.98
2019-02-20T19:30:51.074Z,18.13
2019-02-20T19:35:59.035Z,15.42
2019-02-20T19:41:06.621Z,11.99
2019-02-20T19:46:16.309Z,9.98
2019-02-20T19:51:22.007Z,9.45
2019-02-20T19:56:33.303Z,11.00
2019-02-20T20:01:31.617Z,9.98
2019-02-20T20:06:39.684Z,9.01
2019-02-20T20:11:46.440Z,9.45
2019-02-20T20:16:54.942Z,9.67
2019-02-20T20:22:03.369Z,9.30
2019-02-20T20:27:12.917Z,9.56
2019-02-20T20:32:22.926Z,8.10
2019-02-20T20:37:30.736Z,8.35
2019-02-20T20:42:39.262Z,8.58
2019-02-20T20:47:46.536Z,8.39
2019-02-20T20:52:55.446Z,9.49
2019-02-20T20:58:03.381Z,9.06
2019-02-20T21:03:11.109Z,8.83
2019-02-20T21:08:18.963Z,11.06
2019-02-20T21:13:26.690Z,10.05
2019-02-20T21:18:34.586Z,10.53
2019-02-20T21:23:41.777Z,12.78
2019-02-20T21:28:49.047Z,12.28
2019-02-20T21:33:56.438Z,15.38
2019-02-20T21:39:03.702Z,13.89
2019-02-20T21:44:11.609Z,11.88
2019-02-20T21:49:19.403Z,11.38
2019-02-20T21:54:27.084Z,12.00
2019-02-20T21:59:39.215Z,11.76
2019-02-20T22:04:41.453Z,10.88
2019-02-20T22:09:57.723Z,11.24
2019-02-20T22:14:55.479Z,11.00
2019-02-20T22:20:03.049Z,9.96
2019-02-20T22:25:10.187Z,10.19
2019-02-20T22:30:17.776Z,11.11
2019-02-20T22:35:30.797Z,10.34
2019-02-20T22:40:29.723Z,10.23
2019-02-20T22:45:37.727Z,10.89
2019-02-20T22:50:45.819Z,10.32
2019-02-20T22:55:52.860Z,12.40
2019-02-20T23:01:00.070Z,18.98
2019-02-20T23:06:07.244Z,22.63
2019-02-20T23:11:14.699Z,16.67
2019-02-20T23:16:22.411Z,13.21
2019-02-20T23:21:29.495Z,11.27
2019-02-20T23:26:37.266Z,10.89
2019-02-20T23:31:44.292Z,11.59
2019-02-20T23:36:51.546Z,10.56
2019-02-20T23:41:59.241Z,10.24
2019-02-20T23:47:07.068Z,10.25
2019-02-20T23:52:14.119Z,9.65
2019-02-20T23:57:21.469Z,10.22
